Time;durP1;ratioP1;P1;durP2;ratioP2;P2;SDS_P1;SDS_P2;PMS_P1;PMS_P2;Temp;Humidity;BMP_temperature;BMP_pressure;BME280_temperature;BME280_humidity;BME280_pressure;Samples;Min_cycle;Max_cycle;Signal;HPM_P1;HPM_P2
2022/04/17 00:01:42;;;;;;;;;;;;;;;;;;5072023;28;19908;-82
2022/04/17 00:04:10;;;;;;;;;;;;;;;;;;5073170;28;19915;-82
2022/04/17 00:06:35;;;;;;;;;;;;;;;;;;5071987;28;19908;-82
2022/04/17 00:09:00;;;;;;;;;;;;;;;;;;5069900;28;19916;-81
2022/04/17 00:11:26;;;;;;;;;;;;;;;;;;5068584;28;19920;-82
2022/04/17 00:13:51;;;;;;;;;;;;;;;;;;5071866;28;20245;-82
2022/04/17 00:16:16;;;;;;;;;;;;;;;;;;5074637;28;19919;-82
2022/04/17 00:18:41;;;;;;;;;;;;;;;;;;5075684;28;19937;-82
2022/04/17 00:21:06;;;;;;;;;;;;;;;;;;5071293;28;19913;-82
2022/04/17 00:23:32;;;;;;;;;;;;;;;;;;5065366;28;19913;-82
2022/04/17 00:25:58;;;;;;;;;;;;;;;;;;5076817;28;19919;-82
2022/04/17 00:28:23;;;;;;;;;;;;;;;;;;5075589;28;19908;-82
2022/04/17 00:30:48;;;;;;;;;;;;;;;;;;5075350;28;19908;-82
2022/04/17 00:33:13;;;;;;;;;;;;;;;;;;5074041;28;19913;-82
2022/04/17 00:35:41;;;;;;;;;;;;;;;;;;5059326;28;19909;-82
2022/04/17 00:38:06;;;;;;;;;;;;;;;;;;5056711;28;19935;-82
2022/04/17 00:40:31;;;;;;;;;;;;;;;;;;5055324;28;20611;-82
2022/04/17 00:42:58;;;;;;;;;;;;;;;;;;5055178;28;20365;-82
2022/04/17 00:45:23;;;;;;;;;;;;;;;;;;5060628;28;20268;-82
2022/04/17 00:47:48;;;;;;;;;;;;;;;;;;5074932;28;20424;-82
2022/04/17 00:50:13;;;;;;;;;;;;;;;;;;5074958;28;19923;-82
2022/04/17 00:52:38;;;;;;;;;;;;;;;;;;5075036;28;19919;-81
2022/04/17 00:55:04;;;;;;;;;;;;;;;;;;5075031;28;19919;-82
2022/04/17 00:57:29;;;;;;;;;;;;;;;;;;5075259;28;20387;-82
2022/04/17 00:59:54;;;;;;;;;;;;;;;;;;5074872;28;19979;-82
2022/04/17 01:02:19;;;;;;;;;;;;;;;;;;5074808;28;20008;-81
2022/04/17 01:04:44;;;;;;;;;;;;;;;;;;5075050;28;19934;-82
2022/04/17 01:07:12;;;;;;;;;;;;;;;;;;5074884;28;19962;-82
2022/04/17 01:09:38;;;;;;;;;;;;;;;;;;5070976;28;20402;-81
2022/04/17 01:12:03;;;;;;;;;;;;;;;;;;5054698;28;19913;-83
2022/04/17 01:14:28;;;;;;;;;;;;;;;;;;5054446;28;19909;-82
2022/04/17 01:16:53;;;;;;;;;;;;;;;;;;5054572;28;19960;-81
2022/04/17 01:19:18;;;;;;;;;;;;;;;;;;5054729;28;19913;-82
2022/04/17 01:21:46;;;;;;;;;;;;;;;;;;5063229;28;19920;-81
2022/04/17 01:27:01;;;;;;;;;;;;;;;;;;5075616;28;20020;-82
2022/04/17 01:29:26;;;;;;;;;;;;;;;;;;5075762;28;19915;-82
2022/04/17 01:31:52;;;;;;;;;;;;;;;;;;5074311;28;19995;-82
2022/04/17 01:34:17;;;;;;;;;;;;;;;;;;5074450;28;19920;-81
2022/04/17 01:36:42;;;;;;;;;;;;;;;;;;5074182;28;19947;-82
2022/04/17 01:39:07;;;;;;;;;;;;;;;;;;5073826;28;19909;-81
2022/04/17 01:41:33;;;;;;;;;;;;;;;;;;5074181;28;19919;-82
2022/04/17 01:43:58;;;;;;;;;;;;;;;;;;5074179;28;19912;-82
2022/04/17 01:46:23;;;;;;;;;;;;;;;;;;5069758;28;19921;-82
2022/04/17 01:48:48;;;;;;;;;;;;;;;;;;5054079;28;20284;-82
2022/04/17 01:51:13;;;;;;;;;;;;;;;;;;5054111;28;19909;-82
2022/04/17 01:53:38;;;;;;;;;;;;;;;;;;5053768;28;19913;-82
2022/04/17 01:56:03;;;;;;;;;;;;;;;;;;5053739;28;19916;-82
2022/04/17 01:58:28;;;;;;;;;;;;;;;;;;5069879;28;19982;-82
2022/04/17 02:00:53;;;;;;;;;;;;;;;;;;5073733;28;19934;-82
2022/04/17 02:03:18;;;;;;;;;;;;;;;;;;5073678;28;19909;-82
2022/04/17 02:05:44;;;;;;;;;;;;;;;;;;5072914;28;19942;-82
2022/04/17 02:08:09;;;;;;;;;;;;;;;;;;5070167;28;19909;-82
2022/04/17 02:10:34;;;;;;;;;;;;;;;;;;5053467;28;19924;-81
2022/04/17 02:13:00;;;;;;;;;;;;;;;;;;5053472;28;19913;-82
2022/04/17 02:15:25;;;;;;;;;;;;;;;;;;5053143;28;20364;-81
2022/04/17 02:17:50;;;;;;;;;;;;;;;;;;5070376;28;19916;-82
2022/04/17 02:20:15;;;;;;;;;;;;;;;;;;5086955;28;20011;-82
2022/04/17 02:22:41;;;;;;;;;;;;;;;;;;5086995;28;20011;-82
2022/04/17 02:25:06;;;;;;;;;;;;;;;;;;5087031;28;19909;-82
2022/04/17 02:27:31;;;;;;;;;;;;;;;;;;5088148;28;19913;-82
2022/04/17 02:29:56;;;;;;;;;;;;;;;;;;5073259;28;19975;-82
2022/04/17 02:32:21;;;;;;;;;;;;;;;;;;5073034;28;19954;-82
2022/04/17 02:34:46;;;;;;;;;;;;;;;;;;5073125;28;19958;-82
2022/04/17 02:37:11;;;;;;;;;;;;;;;;;;5074093;28;19978;-81
2022/04/17 02:39:37;;;;;;;;;;;;;;;;;;5072047;28;19920;-82
2022/04/17 02:42:02;;;;;;;;;;;;;;;;;;5072774;28;19963;-81
2022/04/17 02:44:27;;;;;;;;;;;;;;;;;;5073078;28;19935;-82
2022/04/17 02:49:36;;;;;;;;;;;;;;;;;;5074210;28;19912;-82
2022/04/17 02:52:01;;;;;;;;;;;;;;;;;;5068501;28;19916;-82
2022/04/17 02:54:26;;;;;;;;;;;;;;;;;;5052798;28;19909;-82
2022/04/17 02:56:51;;;;;;;;;;;;;;;;;;5052792;28;20007;-82
2022/04/17 02:59:16;;;;;;;;;;;;;;;;;;5052685;28;19909;-82
2022/04/17 03:07:09;;;;;;;;;;;;;;;;;;5053989;28;19915;-82
2022/04/17 03:09:35;;;;;;;;;;;;;;;;;;5052986;28;19912;-82
2022/04/17 03:12:00;;;;;;;;;;;;;;;;;;5052349;28;19913;-82
2022/04/17 03:14:25;;;;;;;;;;;;;;;;;;5052268;28;19908;-82
2022/04/17 03:16:50;;;;;;;;;;;;;;;;;;5068606;28;19917;-82
2022/04/17 03:19:15;;;;;;;;;;;;;;;;;;5072562;28;20015;-82
2022/04/17 03:21:40;;;;;;;;;;;;;;;;;;5072401;28;19993;-82
2022/04/17 03:24:06;;;;;;;;;;;;;;;;;;5072291;28;19909;-82
2022/04/17 03:26:32;;;;;;;;;;;;;;;;;;5072358;28;19908;-82
2022/04/17 03:28:59;;;;;;;;;;;;;;;;;;5072647;28;19913;-82
2022/04/17 03:31:24;;;;;;;;;;;;;;;;;;5072040;28;19908;-81
2022/04/17 03:33:50;;;;;;;;;;;;;;;;;;5072254;28;19909;-81
2022/04/17 03:36:15;;;;;;;;;;;;;;;;;;5072373;28;19917;-82
2022/04/17 03:38:40;;;;;;;;;;;;;;;;;;5072266;28;19912;-82
2022/04/17 03:41:05;;;;;;;;;;;;;;;;;;5068097;28;19919;-82
2022/04/17 03:43:30;;;;;;;;;;;;;;;;;;5052235;28;19916;-82
2022/04/17 03:45:55;;;;;;;;;;;;;;;;;;5051823;28;19909;-82
2022/04/17 03:48:20;;;;;;;;;;;;;;;;;;5051769;28;19939;-82
2022/04/17 03:50:45;;;;;;;;;;;;;;;;;;5055877;28;20367;-82
2022/04/17 03:53:10;;;;;;;;;;;;;;;;;;5074811;28;19913;-82
2022/04/17 03:55:36;;;;;;;;;;;;;;;;;;5076186;28;19908;-81
2022/04/17 03:58:01;;;;;;;;;;;;;;;;;;5076175;28;19912;-81
2022/04/17 04:00:26;;;;;;;;;;;;;;;;;;5072100;28;20417;-81
2022/04/17 04:02:52;;;;;;;;;;;;;;;;;;5055924;28;19913;-82
2022/04/17 04:05:18;;;;;;;;;;;;;;;;;;5056009;28;19912;-82
2022/04/17 04:07:43;;;;;;;;;;;;;;;;;;5056086;28;19913;-82
2022/04/17 04:10:08;;;;;;;;;;;;;;;;;;5058250;28;19998;-82
2022/04/17 04:12:33;;;;;;;;;;;;;;;;;;5075913;28;19913;-81
2022/04/17 04:14:58;;;;;;;;;;;;;;;;;;5075728;28;19978;-81
2022/04/17 04:17:23;;;;;;;;;;;;;;;;;;5076165;28;19916;-82
2022/04/17 04:19:49;;;;;;;;;;;;;;;;;;5076958;28;19915;-81
2022/04/17 04:22:14;;;;;;;;;;;;;;;;;;5074745;28;20321;-81
2022/04/17 04:24:39;;;;;;;;;;;;;;;;;;5075544;28;19933;-81
2022/04/17 04:29:49;;;;;;;;;;;;;;;;;;5076912;28;19920;-82
2022/04/17 04:32:14;;;;;;;;;;;;;;;;;;5075541;28;19912;-82
2022/04/17 04:34:39;;;;;;;;;;;;;;;;;;5072454;28;19913;-82
2022/04/17 04:37:05;;;;;;;;;;;;;;;;;;5055315;28;19920;-82
2022/04/17 04:39:30;;;;;;;;;;;;;;;;;;5055522;28;19916;-82
2022/04/17 04:41:55;;;;;;;;;;;;;;;;;;5056695;28;19909;-81
2022/04/17 04:44:20;;;;;;;;;;;;;;;;;;5055369;28;19909;-81
2022/04/17 04:46:45;;;;;;;;;;;;;;;;;;5056331;28;19918;-82
2022/04/17 04:49:29;;;;;;;;;;;;;;;;;;5075279;28;19917;-82
2022/04/17 04:51:54;;;;;;;;;;;;;;;;;;5075099;28;19950;-82
2022/04/17 04:54:19;;;;;;;;;;;;;;;;;;5075319;28;20007;-81
2022/04/17 04:56:44;;;;;;;;;;;;;;;;;;5070958;28;19958;-81
2022/04/17 04:59:10;;;;;;;;;;;;;;;;;;5075199;28;20011;-81
2022/04/17 05:01:35;;;;;;;;;;;;;;;;;;5074260;28;19908;-81
2022/04/17 05:04:00;;;;;;;;;;;;;;;;;;5075043;28;19913;-81
2022/04/17 05:06:25;;;;;;;;;;;;;;;;;;5070763;28;19970;-81
2022/04/17 05:08:50;;;;;;;;;;;;;;;;;;5054841;28;20361;-81
2022/04/17 05:11:15;;;;;;;;;;;;;;;;;;5054835;28;19909;-81
2022/04/17 05:13:41;;;;;;;;;;;;;;;;;;5054827;28;19909;-82
2022/04/17 05:16:06;;;;;;;;;;;;;;;;;;5054113;28;20296;-81
2022/04/17 05:18:31;;;;;;;;;;;;;;;;;;5056348;28;20364;-81
2022/04/17 05:20:57;;;;;;;;;;;;;;;;;;5054692;28;20309;-81
2022/04/17 05:23:25;;;;;;;;;;;;;;;;;;5054429;28;19913;-81
2022/04/17 05:25:51;;;;;;;;;;;;;;;;;;5054389;28;19909;-81
2022/04/17 05:28:16;;;;;;;;;;;;;;;;;;5054525;28;19924;-82
2022/04/17 05:30:41;;;;;;;;;;;;;;;;;;5067709;28;19916;-82
2022/04/17 05:33:06;;;;;;;;;;;;;;;;;;5074543;28;20260;-82
2022/04/17 05:35:31;;;;;;;;;;;;;;;;;;5074418;28;20417;-82
2022/04/17 05:37:56;;;;;;;;;;;;;;;;;;5074179;28;20360;-82
2022/04/17 05:40:22;;;;;;;;;;;;;;;;;;5074272;28;19958;-82
2022/04/17 05:42:47;;;;;;;;;;;;;;;;;;5070294;28;19909;-82
2022/04/17 05:45:12;;;;;;;;;;;;;;;;;;5053927;28;19979;-82
2022/04/17 05:47:37;;;;;;;;;;;;;;;;;;5054184;28;19961;-82
2022/04/17 05:50:03;;;;;;;;;;;;;;;;;;5054160;28;19909;-82
2022/04/17 05:52:28;;;;;;;;;;;;;;;;;;5053782;28;19916;-82
2022/04/17 05:54:53;;;;;;;;;;;;;;;;;;5055069;28;19921;-82
2022/04/17 05:57:19;;;;;;;;;;;;;;;;;;5053966;28;19916;-82
2022/04/17 05:59:44;;;;;;;;;;;;;;;;;;5053817;28;19913;-82
2022/04/17 06:02:13;;;;;;;;;;;;;;;;;;5054109;28;19960;-82
2022/04/17 06:04:38;;;;;;;;;;;;;;;;;;5053867;28;19963;-82
2022/04/17 06:07:03;;;;;;;;;;;;;;;;;;5065311;28;19920;-82
2022/04/17 06:09:28;;;;;;;;;;;;;;;;;;5073687;28;20276;-82
2022/04/17 06:11:53;;;;;;;;;;;;;;;;;;5073293;28;19955;-82
2022/04/17 06:14:18;;;;;;;;;;;;;;;;;;5073014;28;19944;-82
2022/04/17 06:16:43;;;;;;;;;;;;;;;;;;5073241;28;19962;-82
2022/04/17 06:19:11;;;;;;;;;;;;;;;;;;5073091;28;20000;-82
2022/04/17 06:21:36;;;;;;;;;;;;;;;;;;5073758;28;19913;-82
2022/04/17 06:24:01;;;;;;;;;;;;;;;;;;5053297;28;19966;-82
2022/04/17 06:26:27;;;;;;;;;;;;;;;;;;5054649;28;20279;-82
2022/04/17 06:28:52;;;;;;;;;;;;;;;;;;5062773;28;19915;-82
2022/04/17 06:31:17;;;;;;;;;;;;;;;;;;5072807;28;19927;-82
2022/04/17 06:33:42;;;;;;;;;;;;;;;;;;5073233;28;19915;-82
2022/04/17 06:36:07;;;;;;;;;;;;;;;;;;5073031;28;19934;-82
2022/04/17 06:38:32;;;;;;;;;;;;;;;;;;5072988;28;19962;-82
2022/04/17 06:40:57;;;;;;;;;;;;;;;;;;5068759;28;19944;-83
2022/04/17 06:43:22;;;;;;;;;;;;;;;;;;5053087;28;19917;-83
2022/04/17 06:45:47;;;;;;;;;;;;;;;;;;5052847;28;19908;-83
2022/04/17 06:48:13;;;;;;;;;;;;;;;;;;5052854;28;20372;-82
2022/04/17 06:50:38;;;;;;;;;;;;;;;;;;5054227;28;19917;-82
2022/04/17 06:53:04;;;;;;;;;;;;;;;;;;5073987;28;20403;-83
2022/04/17 06:55:29;;;;;;;;;;;;;;;;;;5063605;28;20373;-82
2022/04/17 06:57:55;;;;;;;;;;;;;;;;;;5065583;28;20368;-82
2022/04/17 07:00:22;;;;;;;;;;;;;;;;;;5068964;28;20007;-82
2022/04/17 07:02:47;;;;;;;;;;;;;;;;;;5065013;28;20372;-82
2022/04/17 07:05:12;;;;;;;;;;;;;;;;;;5062830;28;20431;-82
2022/04/17 07:07:37;;;;;;;;;;;;;;;;;;5071872;28;19912;-82
2022/04/17 07:10:02;;;;;;;;;;;;;;;;;;5059440;28;19935;-83
2022/04/17 07:12:29;;;;;;;;;;;;;;;;;;5062802;28;20367;-82
2022/04/17 07:14:54;;;;;;;;;;;;;;;;;;5071055;28;20526;-82
2022/04/17 07:17:20;;;;;;;;;;;;;;;;;;5070915;28;19970;-82
2022/04/17 07:19:45;;;;;;;;;;;;;;;;;;5071121;28;19917;-83
2022/04/17 07:22:13;;;;;;;;;;;;;;;;;;5072494;28;20004;-82
2022/04/17 07:24:40;;;;;;;;;;;;;;;;;;5071708;28;20302;-82
2022/04/17 07:27:05;;;;;;;;;;;;;;;;;;5068383;28;19913;-82
2022/04/17 07:29:31;;;;;;;;;;;;;;;;;;5070592;28;20448;-82
2022/04/17 07:31:56;;;;;;;;;;;;;;;;;;5071204;28;19912;-82
2022/04/17 07:34:21;;;;;;;;;;;;;;;;;;5072895;28;19913;-82
2022/04/17 07:36:54;;;;;;;;;;;;;;;;;;5071837;28;20465;-82
2022/04/17 07:39:19;;;;;;;;;;;;;;;;;;5070875;28;19920;-82
2022/04/17 07:41:47;;;;;;;;;;;;;;;;;;5072104;28;19917;-82
2022/04/17 07:44:12;;;;;;;;;;;;;;;;;;5071938;28;20321;-82
2022/04/17 07:46:38;;;;;;;;;;;;;;;;;;5069944;28;19912;-82
2022/04/17 07:49:03;;;;;;;;;;;;;;;;;;5071555;28;19916;-82
2022/04/17 07:51:28;;;;;;;;;;;;;;;;;;5067498;28;19919;-82
2022/04/17 07:53:54;;;;;;;;;;;;;;;;;;5056875;28;19919;-82
2022/04/17 07:56:19;;;;;;;;;;;;;;;;;;5070493;28;19978;-82
2022/04/17 07:58:44;;;;;;;;;;;;;;;;;;5067096;28;20726;-82
2022/04/17 08:01:14;;;;;;;;;;;;;;;;;;5064054;28;20442;-82
2022/04/17 08:06:07;;;;;;;;;;;;;;;;;;5066347;28;20364;-83
2022/04/17 08:08:32;;;;;;;;;;;;;;;;;;5067619;28;19982;-82
2022/04/17 08:10:57;;;;;;;;;;;;;;;;;;5068233;28;19912;-82
2022/04/17 08:13:23;;;;;;;;;;;;;;;;;;5070466;28;19916;-82
2022/04/17 08:15:49;;;;;;;;;;;;;;;;;;5069959;28;19912;-82
2022/04/17 08:18:14;;;;;;;;;;;;;;;;;;5071413;28;19916;-82
2022/04/17 08:20:40;;;;;;;;;;;;;;;;;;5069574;28;19918;-82
2022/04/17 08:23:05;;;;;;;;;;;;;;;;;;5068394;28;20050;-83
2022/04/17 08:25:30;;;;;;;;;;;;;;;;;;5070574;28;20030;-82
2022/04/17 08:27:55;;;;;;;;;;;;;;;;;;5067967;28;19921;-82
2022/04/17 08:30:20;;;;;;;;;;;;;;;;;;5067930;28;19966;-82
2022/04/17 08:32:45;;;;;;;;;;;;;;;;;;5058661;28;20271;-82
2022/04/17 08:35:10;;;;;;;;;;;;;;;;;;5068122;28;20422;-82
2022/04/17 08:37:36;;;;;;;;;;;;;;;;;;5072954;28;19917;-82
2022/04/17 08:40:01;;;;;;;;;;;;;;;;;;5074978;28;19920;-82
2022/04/17 08:42:26;;;;;;;;;;;;;;;;;;5066095;28;19942;-82
2022/04/17 08:44:51;;;;;;;;;;;;;;;;;;5071682;28;19931;-82
2022/04/17 08:47:16;;;;;;;;;;;;;;;;;;5073223;28;19916;-82
2022/04/17 08:49:41;;;;;;;;;;;;;;;;;;5069972;28;20525;-82
2022/04/17 08:52:08;;;;;;;;;;;;;;;;;;5072475;28;19919;-82
2022/04/17 08:54:33;;;;;;;;;;;;;;;;;;5068112;28;19920;-83
2022/04/17 08:56:58;;;;;;;;;;;;;;;;;;5058377;28;19923;-83
2022/04/17 08:59:23;;;;;;;;;;;;;;;;;;5071957;28;19939;-82
2022/04/17 09:01:48;;;;;;;;;;;;;;;;;;5071928;28;19912;-82
2022/04/17 09:04:14;;;;;;;;;;;;;;;;;;5073921;28;20299;-81
2022/04/17 09:06:39;;;;;;;;;;;;;;;;;;5061043;28;20004;-82
2022/04/17 09:09:04;;;;;;;;;;;;;;;;;;5069944;28;20331;-82
2022/04/17 09:11:29;;;;;;;;;;;;;;;;;;5072215;28;19995;-82
2022/04/17 09:13:54;;;;;;;;;;;;;;;;;;5070870;28;19986;-82
2022/04/17 09:16:19;;;;;;;;;;;;;;;;;;5072109;28;19912;-82
2022/04/17 09:18:44;;;;;;;;;;;;;;;;;;5073518;28;19912;-82
2022/04/17 09:21:09;;;;;;;;;;;;;;;;;;5072996;28;19948;-82
2022/04/17 09:23:35;;;;;;;;;;;;;;;;;;5073076;28;20019;-82
2022/04/17 09:26:00;;;;;;;;;;;;;;;;;;5069766;28;20011;-82
2022/04/17 09:28:25;;;;;;;;;;;;;;;;;;5059826;28;20356;-82
2022/04/17 09:30:51;;;;;;;;;;;;;;;;;;5070400;28;19924;-82
2022/04/17 09:33:17;;;;;;;;;;;;;;;;;;5070646;28;19912;-82
2022/04/17 09:35:42;;;;;;;;;;;;;;;;;;5073377;28;19919;-82
2022/04/17 09:38:07;;;;;;;;;;;;;;;;;;5073839;28;19912;-82
2022/04/17 09:40:32;;;;;;;;;;;;;;;;;;5070254;28;19913;-82
2022/04/17 09:42:57;;;;;;;;;;;;;;;;;;5069624;28;19913;-82
2022/04/17 09:45:23;;;;;;;;;;;;;;;;;;5072731;28;19951;-82
2022/04/17 09:47:48;;;;;;;;;;;;;;;;;;5072678;28;19917;-82
2022/04/17 09:50:13;;;;;;;;;;;;;;;;;;5070662;28;19916;-81
2022/04/17 09:52:38;;;;;;;;;;;;;;;;;;5069937;28;19913;-82
2022/04/17 09:55:03;;;;;;;;;;;;;;;;;;5071148;28;19927;-82
2022/04/17 09:57:28;;;;;;;;;;;;;;;;;;5070641;28;19955;-82
2022/04/17 09:59:54;;;;;;;;;;;;;;;;;;5069565;28;19920;-82
2022/04/17 10:02:19;;;;;;;;;;;;;;;;;;5069494;28;19927;-82
2022/04/17 10:04:45;;;;;;;;;;;;;;;;;;5072360;28;19920;-82
2022/04/17 10:07:10;;;;;;;;;;;;;;;;;;5073883;28;19909;-82
2022/04/17 10:09:35;;;;;;;;;;;;;;;;;;5073542;28;19908;-82
2022/04/17 10:12:00;;;;;;;;;;;;;;;;;;5070738;28;19912;-82
2022/04/17 10:14:25;;;;;;;;;;;;;;;;;;5053616;28;19913;-82
2022/04/17 10:16:51;;;;;;;;;;;;;;;;;;5053130;28;19913;-81
2022/04/17 10:19:16;;;;;;;;;;;;;;;;;;5054672;28;20280;-82
2022/04/17 10:21:41;;;;;;;;;;;;;;;;;;5053119;28;20003;-82
2022/04/17 10:24:06;;;;;;;;;;;;;;;;;;5070104;28;19916;-82
2022/04/17 10:26:31;;;;;;;;;;;;;;;;;;5069977;28;19958;-82
2022/04/17 10:28:56;;;;;;;;;;;;;;;;;;5069387;28;20001;-82
2022/04/17 10:31:21;;;;;;;;;;;;;;;;;;5086767;28;20007;-82
2022/04/17 10:33:49;;;;;;;;;;;;;;;;;;5059104;28;20007;-82
2022/04/17 10:36:14;;;;;;;;;;;;;;;;;;5074471;28;19908;-82
2022/04/17 10:38:39;;;;;;;;;;;;;;;;;;5072236;28;19912;-82
2022/04/17 10:41:05;;;;;;;;;;;;;;;;;;5073015;28;19909;-82
2022/04/17 10:43:30;;;;;;;;;;;;;;;;;;5068676;28;19912;-82
2022/04/17 10:45:56;;;;;;;;;;;;;;;;;;5052883;28;19947;-82
2022/04/17 10:48:21;;;;;;;;;;;;;;;;;;5066162;28;19959;-82
2022/04/17 10:50:47;;;;;;;;;;;;;;;;;;5072948;28;19959;-82
2022/04/17 10:53:12;;;;;;;;;;;;;;;;;;5071709;28;20003;-82
2022/04/17 10:55:37;;;;;;;;;;;;;;;;;;5057961;28;19952;-82
2022/04/17 10:58:02;;;;;;;;;;;;;;;;;;5053252;28;20019;-82
2022/04/17 11:00:28;;;;;;;;;;;;;;;;;;5053637;28;19909;-82
2022/04/17 11:02:53;;;;;;;;;;;;;;;;;;5052297;28;19913;-82
2022/04/17 11:05:18;;;;;;;;;;;;;;;;;;5052404;28;19909;-82
2022/04/17 11:07:43;;;;;;;;;;;;;;;;;;5052978;28;19991;-82
2022/04/17 11:10:08;;;;;;;;;;;;;;;;;;5052379;28;20016;-82
2022/04/17 11:12:33;;;;;;;;;;;;;;;;;;5053825;28;19957;-82
2022/04/17 11:14:59;;;;;;;;;;;;;;;;;;5069539;28;19912;-82
2022/04/17 11:17:24;;;;;;;;;;;;;;;;;;5068271;28;19974;-82
2022/04/17 11:19:50;;;;;;;;;;;;;;;;;;5052938;28;20464;-82
2022/04/17 11:22:15;;;;;;;;;;;;;;;;;;5085815;28;19915;-82
2022/04/17 11:24:40;;;;;;;;;;;;;;;;;;5086097;28;19909;-82
2022/04/17 11:27:05;;;;;;;;;;;;;;;;;;5067031;28;19920;-82
2022/04/17 11:29:30;;;;;;;;;;;;;;;;;;5073645;28;19916;-82
2022/04/17 11:31:55;;;;;;;;;;;;;;;;;;5071841;28;19909;-82
2022/04/17 11:34:21;;;;;;;;;;;;;;;;;;5072309;28;19912;-81
2022/04/17 11:36:46;;;;;;;;;;;;;;;;;;5072113;28;20318;-82
2022/04/17 11:39:11;;;;;;;;;;;;;;;;;;5068026;28;19919;-82
2022/04/17 11:41:36;;;;;;;;;;;;;;;;;;5052248;28;20006;-82
2022/04/17 11:44:01;;;;;;;;;;;;;;;;;;5052035;28;20402;-82
2022/04/17 11:46:27;;;;;;;;;;;;;;;;;;5053040;28;19969;-82
2022/04/17 11:48:52;;;;;;;;;;;;;;;;;;5052140;28;19958;-82
2022/04/17 11:51:17;;;;;;;;;;;;;;;;;;5067652;28;20046;-82
2022/04/17 11:53:42;;;;;;;;;;;;;;;;;;5071994;28;19909;-82
2022/04/17 11:56:07;;;;;;;;;;;;;;;;;;5071794;28;19909;-82
2022/04/17 11:58:32;;;;;;;;;;;;;;;;;;5072996;28;19917;-82
2022/04/17 12:00:57;;;;;;;;;;;;;;;;;;5072015;28;20422;-82
2022/04/17 12:03:23;;;;;;;;;;;;;;;;;;5067958;28;19912;-82
2022/04/17 12:05:48;;;;;;;;;;;;;;;;;;5051825;28;19908;-82
2022/04/17 12:08:13;;;;;;;;;;;;;;;;;;5051500;28;19912;-82
2022/04/17 12:10:38;;;;;;;;;;;;;;;;;;5052156;28;20368;-82
2022/04/17 12:13:03;;;;;;;;;;;;;;;;;;5057863;28;19946;-82
2022/04/17 12:15:28;;;;;;;;;;;;;;;;;;5075605;28;20379;-82
2022/04/17 12:17:53;;;;;;;;;;;;;;;;;;5075941;28;19944;-82
2022/04/17 12:20:19;;;;;;;;;;;;;;;;;;5075513;28;19913;-82
2022/04/17 12:22:44;;;;;;;;;;;;;;;;;;5076067;28;20621;-82
2022/04/17 12:25:09;;;;;;;;;;;;;;;;;;5071595;28;19912;-82
2022/04/17 12:27:35;;;;;;;;;;;;;;;;;;5057079;28;19909;-82
2022/04/17 12:30:02;;;;;;;;;;;;;;;;;;5055554;28;19912;-82
2022/04/17 12:32:27;;;;;;;;;;;;;;;;;;5055367;28;19916;-82
2022/04/17 12:34:52;;;;;;;;;;;;;;;;;;5056977;28;19912;-82
2022/04/17 12:37:17;;;;;;;;;;;;;;;;;;5075351;28;19912;-82
2022/04/17 12:39:42;;;;;;;;;;;;;;;;;;5075259;28;19919;-82
2022/04/17 12:42:07;;;;;;;;;;;;;;;;;;5075276;28;19959;-82
2022/04/17 12:44:32;;;;;;;;;;;;;;;;;;5075210;28;19990;-82
2022/04/17 12:46:57;;;;;;;;;;;;;;;;;;5074018;28;20016;-82
2022/04/17 12:49:25;;;;;;;;;;;;;;;;;;5054996;28;19948;-82
2022/04/17 12:51:50;;;;;;;;;;;;;;;;;;5055214;28;19909;-82
2022/04/17 12:54:15;;;;;;;;;;;;;;;;;;5056192;28;19908;-82
2022/04/17 12:56:40;;;;;;;;;;;;;;;;;;5054962;28;19913;-82
2022/04/17 12:59:07;;;;;;;;;;;;;;;;;;5056316;28;19952;-82
2022/04/17 13:01:33;;;;;;;;;;;;;;;;;;5055651;28;19919;-82
2022/04/17 13:03:58;;;;;;;;;;;;;;;;;;5054819;28;19908;-82
2022/04/17 13:06:23;;;;;;;;;;;;;;;;;;5054808;28;19919;-82
2022/04/17 13:08:48;;;;;;;;;;;;;;;;;;5054829;28;19923;-82
2022/04/17 13:11:13;;;;;;;;;;;;;;;;;;5057322;28;19971;-82
2022/04/17 13:13:38;;;;;;;;;;;;;;;;;;5074830;28;19966;-82
2022/04/17 13:16:03;;;;;;;;;;;;;;;;;;5074511;28;19939;-82
2022/04/17 13:18:28;;;;;;;;;;;;;;;;;;5074678;28;19916;-82
2022/04/17 13:20:53;;;;;;;;;;;;;;;;;;5075752;28;19908;-82
2022/04/17 13:23:19;;;;;;;;;;;;;;;;;;5069870;28;19912;-82
2022/04/17 13:25:44;;;;;;;;;;;;;;;;;;5055746;28;20702;-82
2022/04/17 13:28:11;;;;;;;;;;;;;;;;;;5054451;28;19931;-82
2022/04/17 13:30:36;;;;;;;;;;;;;;;;;;5055848;28;19905;-82
2022/04/17 13:33:01;;;;;;;;;;;;;;;;;;5054505;28;19932;-82
2022/04/17 13:35:26;;;;;;;;;;;;;;;;;;5059014;28;20301;-82
2022/04/17 13:40:36;;;;;;;;;;;;;;;;;;5055727;28;19942;-82
2022/04/17 13:43:01;;;;;;;;;;;;;;;;;;5054267;28;19912;-82
2022/04/17 13:45:26;;;;;;;;;;;;;;;;;;5054090;28;20303;-82
2022/04/17 13:47:52;;;;;;;;;;;;;;;;;;5062834;28;19916;-82
2022/04/17 13:50:17;;;;;;;;;;;;;;;;;;5073902;28;20004;-82
2022/04/17 13:52:42;;;;;;;;;;;;;;;;;;5073934;28;19936;-82
2022/04/17 13:55:09;;;;;;;;;;;;;;;;;;5074047;28;20256;-82
2022/04/17 13:57:34;;;;;;;;;;;;;;;;;;5073866;28;19962;-82
2022/04/17 13:59:59;;;;;;;;;;;;;;;;;;5069796;28;19913;-82
2022/04/17 14:02:24;;;;;;;;;;;;;;;;;;5053727;28;19939;-82
2022/04/17 14:04:49;;;;;;;;;;;;;;;;;;5055041;28;19995;-82
2022/04/17 14:07:14;;;;;;;;;;;;;;;;;;5053732;28;20008;-82
2022/04/17 14:09:40;;;;;;;;;;;;;;;;;;5053724;28;19909;-82
2022/04/17 14:12:06;;;;;;;;;;;;;;;;;;5066749;28;19917;-82
2022/04/17 14:14:31;;;;;;;;;;;;;;;;;;5073553;28;19908;-82
2022/04/17 14:16:56;;;;;;;;;;;;;;;;;;5074575;28;19913;-82
2022/04/17 14:19:21;;;;;;;;;;;;;;;;;;5073495;28;20249;-82
2022/04/17 14:21:48;;;;;;;;;;;;;;;;;;5073347;28;19918;-82
2022/04/17 14:24:13;;;;;;;;;;;;;;;;;;5069026;28;19917;-82
2022/04/17 14:26:38;;;;;;;;;;;;;;;;;;5053092;28;19919;-82
2022/04/17 14:29:03;;;;;;;;;;;;;;;;;;5053105;28;19917;-82
2022/04/17 14:31:28;;;;;;;;;;;;;;;;;;5052902;28;20314;-82
2022/04/17 14:33:54;;;;;;;;;;;;;;;;;;5052376;28;19913;-82
2022/04/17 14:36:19;;;;;;;;;;;;;;;;;;5066496;28;19912;-82
2022/04/17 14:38:45;;;;;;;;;;;;;;;;;;5073044;28;19909;-82
2022/04/17 14:41:10;;;;;;;;;;;;;;;;;;5074401;28;19908;-82
2022/04/17 14:43:38;;;;;;;;;;;;;;;;;;5072986;28;20481;-81
2022/04/17 14:46:04;;;;;;;;;;;;;;;;;;5072812;28;20325;-82
2022/04/17 14:48:29;;;;;;;;;;;;;;;;;;5061685;28;20376;-82
2022/04/17 14:50:55;;;;;;;;;;;;;;;;;;5053121;28;19935;-82
2022/04/17 14:53:20;;;;;;;;;;;;;;;;;;5052648;28;20031;-82
2022/04/17 14:55:45;;;;;;;;;;;;;;;;;;5052554;28;20249;-82
2022/04/17 14:58:10;;;;;;;;;;;;;;;;;;5052526;28;20395;-82
2022/04/17 15:00:35;;;;;;;;;;;;;;;;;;5058738;28;19913;-82
2022/04/17 15:03:00;;;;;;;;;;;;;;;;;;5052644;28;19909;-82
2022/04/17 15:05:25;;;;;;;;;;;;;;;;;;5052639;28;19909;-82
2022/04/17 15:07:50;;;;;;;;;;;;;;;;;;5052730;28;19912;-82
2022/04/17 15:10:18;;;;;;;;;;;;;;;;;;5052557;28;20311;-82
2022/04/17 15:12:43;;;;;;;;;;;;;;;;;;5064865;28;20046;-82
2022/04/17 15:15:09;;;;;;;;;;;;;;;;;;5071981;28;19965;-82
2022/04/17 15:17:34;;;;;;;;;;;;;;;;;;5052234;28;19999;-82
2022/04/17 15:19:59;;;;;;;;;;;;;;;;;;5052404;28;20015;-82
2022/04/17 15:22:24;;;;;;;;;;;;;;;;;;5052199;28;19967;-82
2022/04/17 15:24:49;;;;;;;;;;;;;;;;;;5063525;28;20030;-82
2022/04/17 15:27:14;;;;;;;;;;;;;;;;;;5073900;28;19909;-82
2022/04/17 15:29:40;;;;;;;;;;;;;;;;;;5072212;28;19985;-82
2022/04/17 15:32:05;;;;;;;;;;;;;;;;;;5072089;28;19962;-82
2022/04/17 15:34:30;;;;;;;;;;;;;;;;;;5067747;28;20345;-82
2022/04/17 15:36:55;;;;;;;;;;;;;;;;;;5053174;28;19913;-82
2022/04/17 15:39:20;;;;;;;;;;;;;;;;;;5052197;28;19909;-82
2022/04/17 15:41:45;;;;;;;;;;;;;;;;;;5052027;28;20356;-82
2022/04/17 15:49:39;;;;;;;;;;;;;;;;;;5073546;28;19920;-82
2022/04/17 15:52:04;;;;;;;;;;;;;;;;;;5072173;28;19908;-82
2022/04/17 15:54:29;;;;;;;;;;;;;;;;;;5072168;28;20006;-82
2022/04/17 15:56:54;;;;;;;;;;;;;;;;;;5072974;28;20302;-82
2022/04/17 15:59:20;;;;;;;;;;;;;;;;;;5067947;28;19920;-82
2022/04/17 16:01:46;;;;;;;;;;;;;;;;;;5069277;28;20360;-82
2022/04/17 16:04:11;;;;;;;;;;;;;;;;;;5071813;28;19923;-82
2022/04/17 16:06:36;;;;;;;;;;;;;;;;;;5071976;28;19915;-82
2022/04/17 16:09:01;;;;;;;;;;;;;;;;;;5073178;28;19908;-82
2022/04/17 16:11:26;;;;;;;;;;;;;;;;;;5067590;28;20284;-82
2022/04/17 16:13:51;;;;;;;;;;;;;;;;;;5051846;28;19952;-82
2022/04/17 16:16:16;;;;;;;;;;;;;;;;;;5051599;28;19913;-82
2022/04/17 16:18:42;;;;;;;;;;;;;;;;;;5051638;28;19917;-82
2022/04/17 16:21:07;;;;;;;;;;;;;;;;;;5051742;28;19908;-82
2022/04/17 16:23:32;;;;;;;;;;;;;;;;;;5066543;28;19912;-82
2022/04/17 16:25:57;;;;;;;;;;;;;;;;;;5071769;28;19958;-82
2022/04/17 16:28:22;;;;;;;;;;;;;;;;;;5072887;28;19958;-82
2022/04/17 16:30:48;;;;;;;;;;;;;;;;;;5071615;28;20326;-82
2022/04/17 16:33:13;;;;;;;;;;;;;;;;;;5071745;28;19912;-82
2022/04/17 16:35:38;;;;;;;;;;;;;;;;;;5067753;28;19913;-82
2022/04/17 16:38:04;;;;;;;;;;;;;;;;;;5051597;28;19917;-82
2022/04/17 16:40:29;;;;;;;;;;;;;;;;;;5051378;28;20261;-82
2022/04/17 16:42:54;;;;;;;;;;;;;;;;;;5051633;28;19924;-82
2022/04/17 16:45:19;;;;;;;;;;;;;;;;;;5051469;28;19916;-82
2022/04/17 16:47:44;;;;;;;;;;;;;;;;;;5068303;28;20433;-82
2022/04/17 16:50:09;;;;;;;;;;;;;;;;;;5071279;28;19915;-82
2022/04/17 16:52:34;;;;;;;;;;;;;;;;;;5071318;28;20003;-82
2022/04/17 16:54:59;;;;;;;;;;;;;;;;;;5067591;28;20402;-82
2022/04/17 17:00:16;;;;;;;;;;;;;;;;;;5075452;28;19908;-82